Terminal Aerodrome Forecast
Issued by NWS Memphis, TN

Home | Current Version | Previous Version | Text Only | Print | Product List | Glossary On
Versions: 1 2 3 4 5 6 7 8 9 10 11 12
000
FTUS44 KMEG 051139
TAFMKL
TAF
KMKL 051139Z 0512/0612 00000KT P6SM OVC200
     FM051500 VRB05KT P6SM VCSH SCT060 OVC120
     FM051800 30006KT P6SM VCTS SCT060CB BKN120
     FM060100 14003KT P6SM VCSH SCT050 BKN120
      TEMPO 0610/0612 VRB10KT 4SM -TSRA SCT030 OVC045CB=

USA.gov is the U.S. government's official web portal to all federal, state and local government web resources and services.